sensor_id;sensor_type;location;lat;lon;timestamp;temperature;humidity
5792;DHT22;2922;53.482;10.006;2023-12-22T00:02:04;4.90;99.90
5792;DHT22;2922;53.482;10.006;2023-12-22T00:04:30;4.80;99.90
5792;DHT22;2922;53.482;10.006;2023-12-22T00:06:55;4.80;99.90
5792;DHT22;2922;53.482;10.006;2023-12-22T00:09:21;4.80;99.90
5792;DHT22;2922;53.482;10.006;2023-12-22T00:11:46;4.80;99.90
5792;DHT22;2922;53.482;10.006;2023-12-22T00:14:12;4.80;99.90
5792;DHT22;2922;53.482;10.006;2023-12-22T00:16:38;4.80;99.90
5792;DHT22;2922;53.482;10.006;2023-12-22T00:19:04;4.80;99.90
5792;DHT22;2922;53.482;10.006;2023-12-22T00:21:29;4.80;99.90
5792;DHT22;2922;53.482;10.006;2023-12-22T00:23:55;4.80;99.90
5792;DHT22;2922;53.482;10.006;2023-12-22T00:26:20;4.80;99.90
5792;DHT22;2922;53.482;10.006;2023-12-22T00:28:46;4.80;99.90
5792;DHT22;2922;53.482;10.006;2023-12-22T00:31:11;4.80;99.90
5792;DHT22;2922;53.482;10.006;2023-12-22T00:33:40;4.80;99.90
5792;DHT22;2922;53.482;10.006;2023-12-22T00:36:05;4.80;99.90
5792;DHT22;2922;53.482;10.006;2023-12-22T00:38:31;4.80;99.90
5792;DHT22;2922;53.482;10.006;2023-12-22T00:40:57;4.80;99.90
5792;DHT22;2922;53.482;10.006;2023-12-22T00:43:23;4.70;99.90
5792;DHT22;2922;53.482;10.006;2023-12-22T00:45:48;4.70;99.90
5792;DHT22;2922;53.482;10.006;2023-12-22T00:48:14;4.70;99.90
5792;DHT22;2922;53.482;10.006;2023-12-22T00:50:41;4.70;99.90
5792;DHT22;2922;53.482;10.006;2023-12-22T00:53:06;4.60;99.90
5792;DHT22;2922;53.482;10.006;2023-12-22T00:55:32;4.60;99.90
5792;DHT22;2922;53.482;10.006;2023-12-22T00:57:58;4.60;99.90
5792;DHT22;2922;53.482;10.006;2023-12-22T01:00:23;4.50;99.90
5792;DHT22;2922;53.482;10.006;2023-12-22T01:02:49;4.50;99.90
5792;DHT22;2922;53.482;10.006;2023-12-22T01:05:15;4.50;99.90
5792;DHT22;2922;53.482;10.006;2023-12-22T01:07:40;4.50;99.90
5792;DHT22;2922;53.482;10.006;2023-12-22T01:10:06;4.50;99.90
5792;DHT22;2922;53.482;10.006;2023-12-22T01:12:32;4.50;99.90
5792;DHT22;2922;53.482;10.006;2023-12-22T01:14:57;4.50;99.90
5792;DHT22;2922;53.482;10.006;2023-12-22T01:17:23;4.50;99.90
5792;DHT22;2922;53.482;10.006;2023-12-22T01:19:49;4.50;99.90
5792;DHT22;2922;53.482;10.006;2023-12-22T01:22:14;4.50;99.90
5792;DHT22;2922;53.482;10.006;2023-12-22T01:24:40;4.50;99.90
5792;DHT22;2922;53.482;10.006;2023-12-22T01:27:09;4.40;99.90
5792;DHT22;2922;53.482;10.006;2023-12-22T01:29:34;4.40;99.90
5792;DHT22;2922;53.482;10.006;2023-12-22T01:32:00;4.40;99.90
5792;DHT22;2922;53.482;10.006;2023-12-22T01:34:25;4.40;99.90
5792;DHT22;2922;53.482;10.006;2023-12-22T01:36:51;4.40;99.90
5792;DHT22;2922;53.482;10.006;2023-12-22T01:39:17;4.30;99.90
5792;DHT22;2922;53.482;10.006;2023-12-22T01:41:42;4.30;99.90
5792;DHT22;2922;53.482;10.006;2023-12-22T01:44:08;4.40;99.90
5792;DHT22;2922;53.482;10.006;2023-12-22T01:46:34;4.40;99.90
5792;DHT22;2922;53.482;10.006;2023-12-22T01:49:01;4.30;99.90
5792;DHT22;2922;53.482;10.006;2023-12-22T01:51:28;4.30;99.90
5792;DHT22;2922;53.482;10.006;2023-12-22T01:53:54;4.20;99.90
5792;DHT22;2922;53.482;10.006;2023-12-22T01:56:20;4.00;99.90
5792;DHT22;2922;53.482;10.006;2023-12-22T01:58:45;3.90;99.90
5792;DHT22;2922;53.482;10.006;2023-12-22T02:01:11;3.90;99.90
5792;DHT22;2922;53.482;10.006;2023-12-22T02:03:37;3.80;99.90
5792;DHT22;2922;53.482;10.006;2023-12-22T02:06:04;3.80;99.90
5792;DHT22;2922;53.482;10.006;2023-12-22T02:08:32;3.80;99.90
5792;DHT22;2922;53.482;10.006;2023-12-22T02:10:58;3.70;99.90
5792;DHT22;2922;53.482;10.006;2023-12-22T02:13:24;3.70;99.90
5792;DHT22;2922;53.482;10.006;2023-12-22T02:16:01;3.80;99.90
5792;DHT22;2922;53.482;10.006;2023-12-22T02:18:33;3.80;99.90
5792;DHT22;2922;53.482;10.006;2023-12-22T02:21:00;3.80;99.90
5792;DHT22;2922;53.482;10.006;2023-12-22T02:23:26;3.80;99.90
5792;DHT22;2922;53.482;10.006;2023-12-22T02:25:56;3.80;99.90
5792;DHT22;2922;53.482;10.006;2023-12-22T02:28:23;3.90;99.90
5792;DHT22;2922;53.482;10.006;2023-12-22T02:30:54;3.90;99.90
5792;DHT22;2922;53.482;10.006;2023-12-22T02:33:22;3.90;99.90
5792;DHT22;2922;53.482;10.006;2023-12-22T02:35:49;3.80;99.90
5792;DHT22;2922;53.482;10.006;2023-12-22T02:38:16;3.80;99.90
5792;DHT22;2922;53.482;10.006;2023-12-22T02:40:43;3.80;99.90
5792;DHT22;2922;53.482;10.006;2023-12-22T02:43:09;3.80;99.90
5792;DHT22;2922;53.482;10.006;2023-12-22T02:45:35;3.80;99.90
5792;DHT22;2922;53.482;10.006;2023-12-22T02:48:00;3.80;99.90
5792;DHT22;2922;53.482;10.006;2023-12-22T02:50:26;3.80;99.90
5792;DHT22;2922;53.482;10.006;2023-12-22T02:52:51;3.90;99.90
5792;DHT22;2922;53.482;10.006;2023-12-22T02:55:17;3.90;99.90
5792;DHT22;2922;53.482;10.006;2023-12-22T02:57:43;4.00;99.90
5792;DHT22;2922;53.482;10.006;2023-12-22T03:00:09;4.00;99.90
5792;DHT22;2922;53.482;10.006;2023-12-22T03:02:34;4.00;99.90
5792;DHT22;2922;53.482;10.006;2023-12-22T03:05:00;4.00;99.90
5792;DHT22;2922;53.482;10.006;2023-12-22T03:07:25;3.80;99.90
5792;DHT22;2922;53.482;10.006;2023-12-22T03:09:51;3.60;99.90
5792;DHT22;2922;53.482;10.006;2023-12-22T03:12:16;3.50;99.90
5792;DHT22;2922;53.482;10.006;2023-12-22T03:14:42;3.50;99.90
5792;DHT22;2922;53.482;10.006;2023-12-22T03:17:07;3.40;99.90
5792;DHT22;2922;53.482;10.006;2023-12-22T03:19:33;3.40;99.90
5792;DHT22;2922;53.482;10.006;2023-12-22T03:21:59;3.30;99.90
5792;DHT22;2922;53.482;10.006;2023-12-22T03:24:25;3.30;99.90
5792;DHT22;2922;53.482;10.006;2023-12-22T03:26:51;3.40;99.90
5792;DHT22;2922;53.482;10.006;2023-12-22T03:29:18;3.40;99.90
5792;DHT22;2922;53.482;10.006;2023-12-22T03:31:44;3.30;99.90
5792;DHT22;2922;53.482;10.006;2023-12-22T03:34:10;3.30;99.90
5792;DHT22;2922;53.482;10.006;2023-12-22T03:36:35;3.30;99.90
5792;DHT22;2922;53.482;10.006;2023-12-22T03:39:01;3.30;99.90
5792;DHT22;2922;53.482;10.006;2023-12-22T03:41:28;3.30;99.90
5792;DHT22;2922;53.482;10.006;2023-12-22T03:43:54;3.30;99.90
5792;DHT22;2922;53.482;10.006;2023-12-22T03:46:20;3.30;99.90
5792;DHT22;2922;53.482;10.006;2023-12-22T03:48:46;3.30;99.90
5792;DHT22;2922;53.482;10.006;2023-12-22T03:51:12;3.40;99.90
5792;DHT22;2922;53.482;10.006;2023-12-22T03:53:38;3.40;99.90
5792;DHT22;2922;53.482;10.006;2023-12-22T03:56:04;3.50;99.90
5792;DHT22;2922;53.482;10.006;2023-12-22T03:58:30;3.50;99.90
5792;DHT22;2922;53.482;10.006;2023-12-22T04:00:56;3.60;99.90
5792;DHT22;2922;53.482;10.006;2023-12-22T04:03:21;3.60;99.90
5792;DHT22;2922;53.482;10.006;2023-12-22T04:05:47;3.70;99.90
5792;DHT22;2922;53.482;10.006;2023-12-22T04:08:13;3.60;99.90
5792;DHT22;2922;53.482;10.006;2023-12-22T04:10:38;3.70;99.90
5792;DHT22;2922;53.482;10.006;2023-12-22T04:13:04;3.70;99.90
5792;DHT22;2922;53.482;10.006;2023-12-22T04:15:29;3.70;99.90
5792;DHT22;2922;53.482;10.006;2023-12-22T04:17:55;3.60;99.90
5792;DHT22;2922;53.482;10.006;2023-12-22T04:20:20;3.60;99.90
5792;DHT22;2922;53.482;10.006;2023-12-22T04:22:46;3.50;99.90
5792;DHT22;2922;53.482;10.006;2023-12-22T04:25:11;3.60;99.90
5792;DHT22;2922;53.482;10.006;2023-12-22T04:27:37;3.50;99.90
5792;DHT22;2922;53.482;10.006;2023-12-22T04:30:03;3.50;99.90
5792;DHT22;2922;53.482;10.006;2023-12-22T04:32:28;3.50;99.90
5792;DHT22;2922;53.482;10.006;2023-12-22T04:34:54;3.60;99.90
5792;DHT22;2922;53.482;10.006;2023-12-22T04:37:19;3.60;99.90
5792;DHT22;2922;53.482;10.006;2023-12-22T04:39:45;3.60;99.90
5792;DHT22;2922;53.482;10.006;2023-12-22T04:42:10;3.60;99.90
5792;DHT22;2922;53.482;10.006;2023-12-22T04:44:36;3.70;99.90
5792;DHT22;2922;53.482;10.006;2023-12-22T04:47:02;3.70;99.90
5792;DHT22;2922;53.482;10.006;2023-12-22T04:49:27;3.90;99.90
5792;DHT22;2922;53.482;10.006;2023-12-22T04:51:53;3.90;99.90
5792;DHT22;2922;53.482;10.006;2023-12-22T04:54:18;3.90;99.90
5792;DHT22;2922;53.482;10.006;2023-12-22T04:56:44;4.00;99.90
5792;DHT22;2922;53.482;10.006;2023-12-22T04:59:09;4.10;99.90
5792;DHT22;2922;53.482;10.006;2023-12-22T05:01:35;4.20;99.90
5792;DHT22;2922;53.482;10.006;2023-12-22T05:04:01;4.10;99.90
5792;DHT22;2922;53.482;10.006;2023-12-22T05:06:27;4.20;99.90
5792;DHT22;2922;53.482;10.006;2023-12-22T05:08:54;4.20;99.90
5792;DHT22;2922;53.482;10.006;2023-12-22T05:11:21;4.20;99.90
5792;DHT22;2922;53.482;10.006;2023-12-22T05:13:47;4.20;99.90
5792;DHT22;2922;53.482;10.006;2023-12-22T05:16:13;4.30;99.90
5792;DHT22;2922;53.482;10.006;2023-12-22T05:18:39;4.30;99.90
5792;DHT22;2922;53.482;10.006;2023-12-22T05:21:05;4.30;99.90
5792;DHT22;2922;53.482;10.006;2023-12-22T05:23:30;4.30;99.90
5792;DHT22;2922;53.482;10.006;2023-12-22T05:25:56;4.30;99.90
5792;DHT22;2922;53.482;10.006;2023-12-22T05:28:21;4.30;99.90
5792;DHT22;2922;53.482;10.006;2023-12-22T05:30:47;4.10;99.90
5792;DHT22;2922;53.482;10.006;2023-12-22T05:33:13;4.10;99.90
5792;DHT22;2922;53.482;10.006;2023-12-22T05:35:38;3.90;99.90
5792;DHT22;2922;53.482;10.006;2023-12-22T05:38:04;3.90;99.90
5792;DHT22;2922;53.482;10.006;2023-12-22T05:40:32;3.80;99.90
5792;DHT22;2922;53.482;10.006;2023-12-22T05:42:57;3.80;99.90
5792;DHT22;2922;53.482;10.006;2023-12-22T05:45:23;3.80;99.90
5792;DHT22;2922;53.482;10.006;2023-12-22T05:47:52;3.80;99.90
5792;DHT22;2922;53.482;10.006;2023-12-22T05:50:17;3.80;99.90
5792;DHT22;2922;53.482;10.006;2023-12-22T05:52:43;3.80;99.90
5792;DHT22;2922;53.482;10.006;2023-12-22T05:55:11;3.70;99.90
5792;DHT22;2922;53.482;10.006;2023-12-22T05:57:37;3.70;99.90
5792;DHT22;2922;53.482;10.006;2023-12-22T06:00:04;3.60;99.90
5792;DHT22;2922;53.482;10.006;2023-12-22T06:02:33;3.50;99.90
5792;DHT22;2922;53.482;10.006;2023-12-22T06:04:58;3.50;99.90
5792;DHT22;2922;53.482;10.006;2023-12-22T06:07:25;3.40;99.90
5792;DHT22;2922;53.482;10.006;2023-12-22T06:09:51;3.40;99.90
5792;DHT22;2922;53.482;10.006;2023-12-22T06:12:16;3.30;99.90
5792;DHT22;2922;53.482;10.006;2023-12-22T06:14:42;3.30;99.90
5792;DHT22;2922;53.482;10.006;2023-12-22T06:17:07;3.30;99.90
5792;DHT22;2922;53.482;10.006;2023-12-22T06:19:34;3.40;99.90
5792;DHT22;2922;53.482;10.006;2023-12-22T06:22:00;3.40;99.90
5792;DHT22;2922;53.482;10.006;2023-12-22T06:24:26;3.40;99.90
5792;DHT22;2922;53.482;10.006;2023-12-22T06:26:51;3.60;99.90
5792;DHT22;2922;53.482;10.006;2023-12-22T06:29:17;3.70;99.90
5792;DHT22;2922;53.482;10.006;2023-12-22T06:31:42;3.80;99.90
5792;DHT22;2922;53.482;10.006;2023-12-22T06:34:08;3.90;99.90
5792;DHT22;2922;53.482;10.006;2023-12-22T06:36:34;3.90;99.90
5792;DHT22;2922;53.482;10.006;2023-12-22T06:38:59;4.00;99.90
5792;DHT22;2922;53.482;10.006;2023-12-22T06:41:29;4.10;99.90
5792;DHT22;2922;53.482;10.006;2023-12-22T06:43:56;4.20;99.90
5792;DHT22;2922;53.482;10.006;2023-12-22T06:46:23;4.10;99.90
5792;DHT22;2922;53.482;10.006;2023-12-22T06:48:51;4.00;99.90
5792;DHT22;2922;53.482;10.006;2023-12-22T06:51:27;3.90;99.90
5792;DHT22;2922;53.482;10.006;2023-12-22T06:53:54;3.80;99.90
5792;DHT22;2922;53.482;10.006;2023-12-22T06:56:27;3.70;99.90
5792;DHT22;2922;53.482;10.006;2023-12-22T06:58:55;3.60;99.90
5792;DHT22;2922;53.482;10.006;2023-12-22T07:01:42;3.50;99.90
5792;DHT22;2922;53.482;10.006;2023-12-22T07:04:07;3.50;99.90
5792;DHT22;2922;53.482;10.006;2023-12-22T07:06:34;3.60;99.90
5792;DHT22;2922;53.482;10.006;2023-12-22T07:11:43;3.70;99.90
5792;DHT22;2922;53.482;10.006;2023-12-22T07:14:08;3.90;99.90
5792;DHT22;2922;53.482;10.006;2023-12-22T07:16:35;3.90;99.90
5792;DHT22;2922;53.482;10.006;2023-12-22T07:19:01;3.80;99.90
5792;DHT22;2922;53.482;10.006;2023-12-22T07:21:26;3.90;99.90
5792;DHT22;2922;53.482;10.006;2023-12-22T07:23:52;4.00;99.90
5792;DHT22;2922;53.482;10.006;2023-12-22T07:26:18;4.00;99.90
5792;DHT22;2922;53.482;10.006;2023-12-22T07:28:43;4.00;99.90
5792;DHT22;2922;53.482;10.006;2023-12-22T07:31:09;4.10;99.90
5792;DHT22;2922;53.482;10.006;2023-12-22T07:33:34;4.20;99.90
5792;DHT22;2922;53.482;10.006;2023-12-22T07:36:00;4.30;99.90
5792;DHT22;2922;53.482;10.006;2023-12-22T07:38:26;4.20;99.90
5792;DHT22;2922;53.482;10.006;2023-12-22T07:40:51;4.00;99.90
5792;DHT22;2922;53.482;10.006;2023-12-22T07:43:17;3.90;99.90
5792;DHT22;2922;53.482;10.006;2023-12-22T07:45:42;3.80;99.90
5792;DHT22;2922;53.482;10.006;2023-12-22T07:48:08;3.90;99.90
5792;DHT22;2922;53.482;10.006;2023-12-22T07:50:33;3.80;99.90
5792;DHT22;2922;53.482;10.006;2023-12-22T07:52:59;3.80;99.90
5792;DHT22;2922;53.482;10.006;2023-12-22T07:55:25;3.70;99.90
5792;DHT22;2922;53.482;10.006;2023-12-22T07:57:51;3.70;99.90
5792;DHT22;2922;53.482;10.006;2023-12-22T08:00:19;3.70;99.90
5792;DHT22;2922;53.482;10.006;2023-12-22T08:02:45;3.70;99.90
5792;DHT22;2922;53.482;10.006;2023-12-22T08:05:12;3.70;99.90
5792;DHT22;2922;53.482;10.006;2023-12-22T08:07:38;3.70;99.90
5792;DHT22;2922;53.482;10.006;2023-12-22T08:10:04;3.70;99.90
5792;DHT22;2922;53.482;10.006;2023-12-22T08:12:29;3.80;99.90
5792;DHT22;2922;53.482;10.006;2023-12-22T08:14:57;3.80;99.90
5792;DHT22;2922;53.482;10.006;2023-12-22T08:17:22;3.80;99.90
5792;DHT22;2922;53.482;10.006;2023-12-22T08:19:48;3.90;99.90
5792;DHT22;2922;53.482;10.006;2023-12-22T08:22:14;3.90;99.90
5792;DHT22;2922;53.482;10.006;2023-12-22T08:24:40;4.00;99.90
5792;DHT22;2922;53.482;10.006;2023-12-22T08:27:07;4.00;99.90
5792;DHT22;2922;53.482;10.006;2023-12-22T08:29:33;4.00;99.90
5792;DHT22;2922;53.482;10.006;2023-12-22T08:31:58;3.90;99.90
5792;DHT22;2922;53.482;10.006;2023-12-22T08:34:26;3.90;99.90
5792;DHT22;2922;53.482;10.006;2023-12-22T08:36:51;4.00;99.90
5792;DHT22;2922;53.482;10.006;2023-12-22T08:39:17;4.20;99.90
5792;DHT22;2922;53.482;10.006;2023-12-22T08:41:42;4.20;99.90
5792;DHT22;2922;53.482;10.006;2023-12-22T08:44:08;4.30;99.90
5792;DHT22;2922;53.482;10.006;2023-12-22T08:46:34;4.40;99.90
5792;DHT22;2922;53.482;10.006;2023-12-22T08:49:00;4.40;99.90
5792;DHT22;2922;53.482;10.006;2023-12-22T08:51:27;4.30;99.90
5792;DHT22;2922;53.482;10.006;2023-12-22T08:53:53;4.30;99.90
5792;DHT22;2922;53.482;10.006;2023-12-22T08:56:23;4.40;99.90
5792;DHT22;2922;53.482;10.006;2023-12-22T08:58:50;4.40;99.90
5792;DHT22;2922;53.482;10.006;2023-12-22T09:01:17;4.50;99.90
5792;DHT22;2922;53.482;10.006;2023-12-22T09:03:43;4.60;99.90
5792;DHT22;2922;53.482;10.006;2023-12-22T09:06:20;4.70;99.90
5792;DHT22;2922;53.482;10.006;2023-12-22T09:08:46;4.60;99.90
5792;DHT22;2922;53.482;10.006;2023-12-22T09:11:13;4.60;99.90
5792;DHT22;2922;53.482;10.006;2023-12-22T09:13:40;4.60;99.90
5792;DHT22;2922;53.482;10.006;2023-12-22T09:16:07;4.70;99.90
5792;DHT22;2922;53.482;10.006;2023-12-22T09:18:33;4.80;99.90
5792;DHT22;2922;53.482;10.006;2023-12-22T09:20:59;4.80;99.90
5792;DHT22;2922;53.482;10.006;2023-12-22T09:23:25;4.80;99.90
5792;DHT22;2922;53.482;10.006;2023-12-22T09:25:50;4.80;99.90
5792;DHT22;2922;53.482;10.006;2023-12-22T09:28:16;4.80;99.90
5792;DHT22;2922;53.482;10.006;2023-12-22T09:30:41;4.90;99.90
5792;DHT22;2922;53.482;10.006;2023-12-22T09:33:10;4.90;99.90
5792;DHT22;2922;53.482;10.006;2023-12-22T09:35:36;4.90;99.90
5792;DHT22;2922;53.482;10.006;2023-12-22T09:38:03;4.90;99.90
5792;DHT22;2922;53.482;10.006;2023-12-22T09:40:28;5.00;99.90
5792;DHT22;2922;53.482;10.006;2023-12-22T09:42:55;5.00;99.90
5792;DHT22;2922;53.482;10.006;2023-12-22T09:45:21;5.00;99.90
5792;DHT22;2922;53.482;10.006;2023-12-22T09:47:48;5.00;99.90
5792;DHT22;2922;53.482;10.006;2023-12-22T09:50:14;5.10;99.90
5792;DHT22;2922;53.482;10.006;2023-12-22T09:52:42;5.10;99.90
5792;DHT22;2922;53.482;10.006;2023-12-22T09:55:09;5.10;99.90
5792;DHT22;2922;53.482;10.006;2023-12-22T09:57:36;5.10;99.90
5792;DHT22;2922;53.482;10.006;2023-12-22T10:00:03;5.20;99.90
5792;DHT22;2922;53.482;10.006;2023-12-22T10:02:32;5.30;99.90
5792;DHT22;2922;53.482;10.006;2023-12-22T10:04:58;5.40;99.90
5792;DHT22;2922;53.482;10.006;2023-12-22T10:07:24;5.50;99.90
5792;DHT22;2922;53.482;10.006;2023-12-22T10:09:52;5.50;99.90
5792;DHT22;2922;53.482;10.006;2023-12-22T10:12:19;5.50;99.90
5792;DHT22;2922;53.482;10.006;2023-12-22T10:14:47;5.50;99.90
5792;DHT22;2922;53.482;10.006;2023-12-22T10:17:12;5.40;99.90
5792;DHT22;2922;53.482;10.006;2023-12-22T10:19:39;5.50;99.90
5792;DHT22;2922;53.482;10.006;2023-12-22T10:22:04;5.50;99.90
5792;DHT22;2922;53.482;10.006;2023-12-22T10:24:46;5.50;99.90
5792;DHT22;2922;53.482;10.006;2023-12-22T10:27:18;5.50;99.90
5792;DHT22;2922;53.482;10.006;2023-12-22T10:32:16;5.50;99.90
5792;DHT22;2922;53.482;10.006;2023-12-22T10:34:43;5.50;99.90
5792;DHT22;2922;53.482;10.006;2023-12-22T10:37:09;5.50;99.90
5792;DHT22;2922;53.482;10.006;2023-12-22T10:39:36;5.50;99.90
5792;DHT22;2922;53.482;10.006;2023-12-22T10:42:03;5.40;99.90
5792;DHT22;2922;53.482;10.006;2023-12-22T10:44:29;5.40;99.90
5792;DHT22;2922;53.482;10.006;2023-12-22T10:46:55;5.40;99.90
5792;DHT22;2922;53.482;10.006;2023-12-22T10:49:22;5.40;99.90
5792;DHT22;2922;53.482;10.006;2023-12-22T10:51:48;5.30;99.90
5792;DHT22;2922;53.482;10.006;2023-12-22T10:54:14;5.00;99.90
5792;DHT22;2922;53.482;10.006;2023-12-22T10:56:40;4.70;99.90
5792;DHT22;2922;53.482;10.006;2023-12-22T10:59:07;4.50;99.90
5792;DHT22;2922;53.482;10.006;2023-12-22T11:01:35;4.50;99.90
5792;DHT22;2922;53.482;10.006;2023-12-22T11:04:06;4.40;99.90
5792;DHT22;2922;53.482;10.006;2023-12-22T11:06:36;4.30;99.90
5792;DHT22;2922;53.482;10.006;2023-12-22T11:09:06;4.20;99.90
5792;DHT22;2922;53.482;10.006;2023-12-22T11:11:40;4.30;99.90
5792;DHT22;2922;53.482;10.006;2023-12-22T11:14:06;4.20;99.90
5792;DHT22;2922;53.482;10.006;2023-12-22T11:16:34;4.20;99.90
5792;DHT22;2922;53.482;10.006;2023-12-22T11:19:01;4.10;99.90
5792;DHT22;2922;53.482;10.006;2023-12-22T11:21:28;4.10;99.90
5792;DHT22;2922;53.482;10.006;2023-12-22T11:23:55;4.10;99.90
5792;DHT22;2922;53.482;10.006;2023-12-22T11:26:22;4.00;99.90
5792;DHT22;2922;53.482;10.006;2023-12-22T11:28:49;4.00;99.90
5792;DHT22;2922;53.482;10.006;2023-12-22T11:31:16;3.90;99.90
5792;DHT22;2922;53.482;10.006;2023-12-22T11:33:49;3.90;99.90
5792;DHT22;2922;53.482;10.006;2023-12-22T11:36:16;3.70;99.90
5792;DHT22;2922;53.482;10.006;2023-12-22T11:38:44;3.60;99.90
5792;DHT22;2922;53.482;10.006;2023-12-22T11:41:13;3.60;99.90
5792;DHT22;2922;53.482;10.006;2023-12-22T11:43:41;3.60;99.90
5792;DHT22;2922;53.482;10.006;2023-12-22T11:46:08;3.50;99.90
5792;DHT22;2922;53.482;10.006;2023-12-22T11:48:34;3.50;99.90
5792;DHT22;2922;53.482;10.006;2023-12-22T11:51:00;3.50;99.90
5792;DHT22;2922;53.482;10.006;2023-12-22T11:53:30;3.60;99.90
5792;DHT22;2922;53.482;10.006;2023-12-22T11:56:03;3.60;99.90
5792;DHT22;2922;53.482;10.006;2023-12-22T12:01:05;3.60;99.90
5792;DHT22;2922;53.482;10.006;2023-12-22T12:03:31;3.70;99.90
5792;DHT22;2922;53.482;10.006;2023-12-22T12:08:39;3.70;99.90
5792;DHT22;2922;53.482;10.006;2023-12-22T12:11:04;3.80;99.90
5792;DHT22;2922;53.482;10.006;2023-12-22T12:13:33;3.80;99.90
5792;DHT22;2922;53.482;10.006;2023-12-22T12:15:59;3.80;99.90
5792;DHT22;2922;53.482;10.006;2023-12-22T12:18:31;3.90;99.90
5792;DHT22;2922;53.482;10.006;2023-12-22T12:20:57;4.00;99.90
5792;DHT22;2922;53.482;10.006;2023-12-22T12:23:27;4.00;99.90
5792;DHT22;2922;53.482;10.006;2023-12-22T12:25:53;4.10;99.90
5792;DHT22;2922;53.482;10.006;2023-12-22T12:28:26;4.10;99.90
5792;DHT22;2922;53.482;10.006;2023-12-22T12:30:58;4.20;99.90
5792;DHT22;2922;53.482;10.006;2023-12-22T12:33:25;4.20;99.90
5792;DHT22;2922;53.482;10.006;2023-12-22T12:35:52;4.30;99.90
5792;DHT22;2922;53.482;10.006;2023-12-22T12:38:21;4.40;99.90
5792;DHT22;2922;53.482;10.006;2023-12-22T12:40:50;4.40;99.90
5792;DHT22;2922;53.482;10.006;2023-12-22T12:43:17;4.50;99.90
5792;DHT22;2922;53.482;10.006;2023-12-22T12:45:43;4.50;99.90
5792;DHT22;2922;53.482;10.006;2023-12-22T12:48:09;4.50;99.90
5792;DHT22;2922;53.482;10.006;2023-12-22T12:50:34;4.50;99.90
5792;DHT22;2922;53.482;10.006;2023-12-22T12:53:01;4.50;99.90
5792;DHT22;2922;53.482;10.006;2023-12-22T12:55:27;4.50;99.90
5792;DHT22;2922;53.482;10.006;2023-12-22T12:57:54;4.60;99.90
5792;DHT22;2922;53.482;10.006;2023-12-22T13:00:31;4.60;99.90
5792;DHT22;2922;53.482;10.006;2023-12-22T13:03:00;4.60;99.90
5792;DHT22;2922;53.482;10.006;2023-12-22T13:05:28;4.60;99.90
5792;DHT22;2922;53.482;10.006;2023-12-22T13:08:12;4.60;99.90
5792;DHT22;2922;53.482;10.006;2023-12-22T13:10:39;4.60;99.90
5792;DHT22;2922;53.482;10.006;2023-12-22T13:13:05;4.70;99.90
5792;DHT22;2922;53.482;10.006;2023-12-22T13:15:31;4.70;99.90
5792;DHT22;2922;53.482;10.006;2023-12-22T13:17:57;4.70;99.90
5792;DHT22;2922;53.482;10.006;2023-12-22T13:20:22;4.70;99.90
5792;DHT22;2922;53.482;10.006;2023-12-22T13:22:48;4.80;99.90
5792;DHT22;2922;53.482;10.006;2023-12-22T13:25:14;4.80;99.90
5792;DHT22;2922;53.482;10.006;2023-12-22T13:27:51;4.80;99.90
5792;DHT22;2922;53.482;10.006;2023-12-22T13:30:36;4.80;99.90
5792;DHT22;2922;53.482;10.006;2023-12-22T13:33:04;4.80;99.90
5792;DHT22;2922;53.482;10.006;2023-12-22T13:35:30;4.80;99.90
5792;DHT22;2922;53.482;10.006;2023-12-22T13:37:56;4.80;99.90
5792;DHT22;2922;53.482;10.006;2023-12-22T13:40:22;4.90;99.90
5792;DHT22;2922;53.482;10.006;2023-12-22T13:42:58;4.90;99.90
5792;DHT22;2922;53.482;10.006;2023-12-22T13:45:25;4.90;99.90
5792;DHT22;2922;53.482;10.006;2023-12-22T13:47:51;5.00;99.90
5792;DHT22;2922;53.482;10.006;2023-12-22T13:50:16;4.90;99.90
5792;DHT22;2922;53.482;10.006;2023-12-22T13:52:43;5.00;99.90
5792;DHT22;2922;53.482;10.006;2023-12-22T13:55:14;5.00;99.90
5792;DHT22;2922;53.482;10.006;2023-12-22T13:57:41;5.00;99.90
5792;DHT22;2922;53.482;10.006;2023-12-22T14:02:48;5.00;99.90
5792;DHT22;2922;53.482;10.006;2023-12-22T14:05:19;4.90;99.90
5792;DHT22;2922;53.482;10.006;2023-12-22T14:07:46;4.90;99.90
5792;DHT22;2922;53.482;10.006;2023-12-22T14:10:12;4.80;99.90
5792;DHT22;2922;53.482;10.006;2023-12-22T14:12:38;4.70;99.90
5792;DHT22;2922;53.482;10.006;2023-12-22T14:15:11;4.70;99.90
5792;DHT22;2922;53.482;10.006;2023-12-22T14:17:37;4.60;99.90
5792;DHT22;2922;53.482;10.006;2023-12-22T14:20:03;4.50;99.90
5792;DHT22;2922;53.482;10.006;2023-12-22T14:22:37;4.30;99.90
5792;DHT22;2922;53.482;10.006;2023-12-22T14:25:03;4.20;99.90
5792;DHT22;2922;53.482;10.006;2023-12-22T14:27:29;4.20;99.90
5792;DHT22;2922;53.482;10.006;2023-12-22T14:29:55;4.20;99.90
5792;DHT22;2922;53.482;10.006;2023-12-22T14:32:20;4.10;99.90
5792;DHT22;2922;53.482;10.006;2023-12-22T14:34:46;4.10;99.90
5792;DHT22;2922;53.482;10.006;2023-12-22T14:37:12;4.10;99.90
5792;DHT22;2922;53.482;10.006;2023-12-22T14:39:38;4.10;99.90
5792;DHT22;2922;53.482;10.006;2023-12-22T14:42:04;4.10;99.90
5792;DHT22;2922;53.482;10.006;2023-12-22T14:44:30;4.10;99.90
5792;DHT22;2922;53.482;10.006;2023-12-22T14:46:55;4.20;99.90
5792;DHT22;2922;53.482;10.006;2023-12-22T14:49:21;4.20;99.90
5792;DHT22;2922;53.482;10.006;2023-12-22T14:51:47;4.20;99.90
5792;DHT22;2922;53.482;10.006;2023-12-22T14:54:17;4.20;99.90
5792;DHT22;2922;53.482;10.006;2023-12-22T14:56:43;4.30;99.90
5792;DHT22;2922;53.482;10.006;2023-12-22T14:59:12;4.30;99.90
5792;DHT22;2922;53.482;10.006;2023-12-22T15:01:40;4.30;99.90
5792;DHT22;2922;53.482;10.006;2023-12-22T15:04:05;4.30;99.90
5792;DHT22;2922;53.482;10.006;2023-12-22T15:06:32;4.30;99.90
5792;DHT22;2922;53.482;10.006;2023-12-22T15:08:57;4.30;99.90
5792;DHT22;2922;53.482;10.006;2023-12-22T15:11:25;4.40;99.90
5792;DHT22;2922;53.482;10.006;2023-12-22T15:13:50;4.40;99.90
5792;DHT22;2922;53.482;10.006;2023-12-22T15:16:16;4.40;99.90
5792;DHT22;2922;53.482;10.006;2023-12-22T15:18:42;4.40;99.90
5792;DHT22;2922;53.482;10.006;2023-12-22T15:21:07;4.40;99.90
5792;DHT22;2922;53.482;10.006;2023-12-22T15:23:33;4.40;99.90
5792;DHT22;2922;53.482;10.006;2023-12-22T15:25:59;4.50;99.90
5792;DHT22;2922;53.482;10.006;2023-12-22T15:28:25;4.50;99.90
5792;DHT22;2922;53.482;10.006;2023-12-22T15:30:51;4.50;99.90
5792;DHT22;2922;53.482;10.006;2023-12-22T15:33:17;4.50;99.90
5792;DHT22;2922;53.482;10.006;2023-12-22T15:35:43;4.50;99.90
5792;DHT22;2922;53.482;10.006;2023-12-22T15:38:09;4.50;99.90
5792;DHT22;2922;53.482;10.006;2023-12-22T15:40:35;4.50;99.90
5792;DHT22;2922;53.482;10.006;2023-12-22T15:43:01;4.50;99.90
5792;DHT22;2922;53.482;10.006;2023-12-22T15:45:26;4.50;99.90
5792;DHT22;2922;53.482;10.006;2023-12-22T15:47:52;4.50;99.90
5792;DHT22;2922;53.482;10.006;2023-12-22T15:50:18;4.60;99.90
5792;DHT22;2922;53.482;10.006;2023-12-22T15:52:44;4.60;99.90
5792;DHT22;2922;53.482;10.006;2023-12-22T15:55:09;4.50;99.90
5792;DHT22;2922;53.482;10.006;2023-12-22T15:57:36;4.50;99.90
5792;DHT22;2922;53.482;10.006;2023-12-22T16:00:02;4.60;99.90
5792;DHT22;2922;53.482;10.006;2023-12-22T16:02:29;4.60;99.90
5792;DHT22;2922;53.482;10.006;2023-12-22T16:04:55;4.60;99.90
5792;DHT22;2922;53.482;10.006;2023-12-22T16:07:20;4.60;99.90
5792;DHT22;2922;53.482;10.006;2023-12-22T16:09:49;4.60;99.90
5792;DHT22;2922;53.482;10.006;2023-12-22T16:12:14;4.60;99.90